Singer Island, Florida
Current Conditions -  °F | °C
As of 3:53 PM on Thursday 20 Nov 2014 (Local Time) from KPBI Reporting Station
Broken Clouds Broken Clouds  
Wind Chill: 75°   Ceiling: 3600
Heat Index: 75°   Visibility: 10mi
Dew Point: 58°   Wind: 15mph
Humidity: 55%   Direction: 40°NE
Pressure: 30.12"   Gusts: NA
Location:  26.7789°N, 80.0745°W
Report Text: KPBI 202053Z 04013KT 10SM BKN036 BKN042 BKN120 24/14 A3012 RMK AO2 SLP197 T02390144 55003
Loading
Personal Weather Stations






























Interactive Weather Map New forecast layout! Learn more

10-Day Weather Forecast

Advertisements
Track Severe Weather on mobile